Latest Weather Observations for McCluer Island

IDD60801

Issued at 10:41 am CST Tuesday 2 March 2021 (issued every 10 minutes, with the page automatically refreshed every 10 minutes)

About weather observations | Map of weather stations | Latest weather observations for NT | Other Formats
Station Details ID: 014274 Name: MCCLUER ISLAND Lat: -11.05 Lon: 132.98 Height: 1.4 m
Data from the previous 72 hours. | See also: Recent months at McCluer Island
Date/Time
CST
Temp
°C
App
Temp
°C
Dew
Point
°C
Rel
Hum
%
Delta-T
°C
Wind Press
QNH
hPa
Press
MSL
hPa
Rain since
9am
mm
Dir  Spd
km/h
Gust
km/h
Spd
kts
Gust
kts
02/10:30am 29.8 31.6 26.0 80 2.7 WNW 28 32 15 17 1009.7 1009.7 0.0
02/10:00am 29.8 30.5 25.5 78 3.0 WNW 32 39 17 21 1009.9 - 0.0
02/09:30am 29.4 30.8 26.0 82 2.4 WNW 30 33 16 18 1009.7 - 0.0
02/09:00am 29.3 30.3 25.9 82 2.4 WNW 32 37 17 20 1009.4 1009.4 0.0
02/08:30am 29.3 30.3 25.9 82 2.4 WNW 32 35 17 19 1009.2 - 0.0
02/08:00am 28.9 29.3 25.1 80 2.7 WNW 32 35 17 19 1008.7 - 0.0
02/07:30am 28.8 29.9 25.6 83 2.3 WNW 30 35 16 19 1008.3 - 0.0
02/07:00am 28.8 29.4 25.6 83 2.3 WNW 33 39 18 21 1007.8 - 0.0
02/06:30am 28.8 30.6 26.0 85 2.0 WNW 28 30 15 16 1007.8 - 0.0
02/06:00am 28.8 31.3 26.0 85 2.0 WNW 24 28 13 15 1007.6 1007.6 0.0
02/05:30am 28.7 30.9 25.5 83 2.3 WNW 24 28 13 15 1007.3 - 0.0
02/05:00am 28.3 32.2 26.1 88 1.6 WNW 17 19 9 10 1007.3 - 0.0
02/04:30am 28.2 32.4 26.0 88 1.6 W 15 17 8 9 1007.3 - 0.0
02/04:00am 28.2 32.6 25.6 86 1.8 W 13 17 7 9 1007.4 - 0.0
02/03:30am 28.3 32.4 25.7 86 1.8 WSW 15 17 8 9 1007.5 - 0.0
02/03:00am 28.4 32.8 25.6 85 2.0 W 13 19 7 10 1007.8 1007.8 0.0
02/02:30am 28.4 32.6 25.4 84 2.1 W 13 17 7 9 1008.2 - 0.0
02/02:00am 28.3 32.5 25.3 84 2.1 WSW 13 17 7 9 1008.3 - 0.0
02/01:30am 28.2 32.7 25.2 84 2.1 W 11 15 6 8 1008.5 - 0.0
02/01:00am 28.1 32.5 25.1 84 2.1 SW 11 13 6 7 1008.9 - 0.0
02/12:30am 28.1 32.9 25.1 84 2.1 SSW 9 11 5 6 1009.3 - 0.0
02/12:00am 28.1 32.3 24.7 82 2.4 SSW 11 13 6 7 1009.6 1009.6 0.0
 
Date/Time
CST
Temp
°C
App
Temp
°C
Dew
Point
°C
Rel
Hum
%
Delta-T
°C
Wind Press
QNH
hPa
Press
MSL
hPa
Rain since
9am
mm
Dir  Spd
km/h
Gust
km/h
Spd
kts
Gust
kts
01/11:30pm 27.8 30.7 24.4 82 2.4 S 17 20 9 11 1010.3 - 0.0
01/11:00pm 28.9 32.6 25.7 83 2.3 S 17 20 9 11 1010.6 - 0.0
01/10:30pm 29.0 33.0 25.6 82 2.4 W 15 19 8 10 1010.1 - 0.0
01/10:00pm 29.1 32.8 25.7 82 2.4 W 17 22 9 12 1009.6 - 0.0
01/09:30pm 29.0 32.6 25.6 82 2.4 W 17 22 9 12 1009.6 - 0.0
01/09:00pm 29.1 32.4 25.7 82 2.4 W 19 22 10 12 1009.5 1009.5 0.0
01/08:30pm 29.1 31.9 25.3 80 2.7 W 20 26 11 14 1009.5 - 0.0
01/08:00pm 29.0 30.0 25.4 81 2.5 W 30 35 16 19 1009.1 - 0.0
01/07:30pm 29.1 30.2 25.5 81 2.5 W 30 35 16 19 1008.6 - 0.0
01/07:00pm 29.2 30.5 25.8 82 2.4 W 30 35 16 19 1008.5 - 0.0
01/06:30pm 29.4 31.2 26.0 82 2.4 W 28 33 15 18 1008.3 - 0.0
01/06:00pm 29.4 30.3 25.8 81 2.6 WNW 32 35 17 19 1007.5 1007.5 0.0
01/05:30pm 29.5 30.6 25.5 79 2.8 WNW 30 35 16 19 1007.6 - 0.0
01/05:00pm 29.7 31.0 25.9 80 2.7 WNW 30 33 16 18 1007.8 - 0.0
01/04:30pm 30.4 31.7 25.9 77 3.2 WNW 30 33 16 18 1007.5 - 0.0
01/04:00pm 29.9 31.0 25.6 78 3.0 WNW 30 33 16 18 1007.1 - 0.0
01/03:30pm 30.4 32.2 26.1 78 3.1 WNW 28 33 15 18 1007.1 - 0.0
01/03:00pm 30.2 31.3 25.5 76 3.3 WNW 30 33 16 18 1007.4 1007.4 0.0
01/02:30pm 30.6 32.3 25.9 76 3.3 WNW 28 32 15 17 1007.7 - 0.0
01/02:00pm 30.3 32.3 25.8 77 3.2 WNW 26 30 14 16 1008.3 - 0.0
01/01:30pm 30.6 32.7 25.9 76 3.3 WNW 26 30 14 16 1008.5 - 0.0
01/01:00pm 30.1 31.6 25.6 77 3.2 WNW 28 32 15 17 1008.8 - 0.0
01/12:30pm 30.3 31.9 25.8 77 3.2 WNW 28 32 15 17 1009.2 - 0.0
01/12:00pm 30.4 32.8 26.3 79 2.9 WNW 26 30 14 16 1009.3 1009.3 0.0
01/11:30am 30.4 33.1 26.3 79 2.9 WNW 24 28 13 15 1009.7 - 0.0
01/11:00am 30.0 31.7 25.3 76 3.3 NW 26 30 14 16 1009.7 - 0.0
01/10:30am 30.2 32.5 25.7 77 3.2 WNW 24 28 13 15 1009.7 - 0.0
01/10:00am 30.3 33.3 25.6 76 3.3 WNW 20 22 11 12 1009.7 - 0.0
01/09:30am 29.5 32.6 25.7 80 2.7 WNW 20 24 11 13 1009.6 - 0.0
01/09:00am 29.3 32.3 25.5 80 2.7 WNW 20 24 11 13 1009.6 1009.6 0.0
01/08:30am 29.0 32.2 25.6 82 2.4 WNW 19 24 10 13 1009.4 - 0.0
01/08:00am 28.9 31.4 25.9 84 2.1 WNW 24 28 13 15 1009.0 - 0.0
01/07:30am 28.6 31.3 25.6 84 2.1 WNW 22 26 12 14 1008.7 - 0.0
01/07:00am 28.5 30.7 25.5 84 2.1 W 24 28 13 15 1008.4 - 0.0
01/06:30am 28.6 31.4 25.8 85 2.0 W 22 26 12 14 1008.1 - 0.0
01/06:00am 28.6 31.3 25.6 84 2.1 WNW 22 24 12 13 1007.8 1007.8 0.0
01/05:30am 28.5 31.1 25.5 84 2.1 WNW 22 26 12 14 1007.6 - 0.0
01/05:00am 28.5 30.1 25.1 82 2.4 WNW 26 30 14 16 1007.3 - 0.0
01/04:30am 28.5 31.1 25.5 84 2.1 WNW 22 28 12 15 1007.4 - 0.0
01/04:00am 28.6 31.0 25.8 85 2.0 WNW 24 28 13 15 1007.4 - 0.0
01/03:30am 28.6 31.3 25.6 84 2.1 WNW 22 28 12 15 1007.4 - 0.0
01/03:00am 28.7 30.9 25.5 83 2.3 WNW 24 28 13 15 1007.6 1007.6 0.0
01/02:30am 28.7 30.4 25.3 82 2.4 WNW 26 28 14 15 1007.7 - 0.0
01/02:00am 28.7 30.7 25.1 81 2.5 WNW 24 26 13 14 1008.0 - 0.0
01/01:30am 28.7 31.0 25.1 81 2.5 WNW 22 26 12 14 1008.2 - 0.0
01/01:00am 28.8 31.2 25.2 81 2.5 WNW 22 26 12 14 1008.3 - 0.0
01/12:30am 28.8 31.5 25.0 80 2.7 W 20 24 11 13 1008.4 - 0.0
01/12:00am 28.8 31.7 25.4 82 2.4 WNW 20 26 11 14 1008.7 1008.7 0.0
 
Date/Time
CST
Temp
°C
App
Temp
°C
Dew
Point
°C
Rel
Hum
%
Delta-T
°C
Wind Press
QNH
hPa
Press
MSL
hPa
Rain since
9am
mm
Dir  Spd
km/h
Gust
km/h
Spd
kts
Gust
kts
28/11:30pm 28.8 31.1 25.0 80 2.7 WNW 22 28 12 15 1008.8 - 0.0
28/11:00pm 28.9 31.6 25.1 80 2.7 W 20 24 11 13 1008.9 - 0.0
28/10:30pm 29.0 31.8 25.2 80 2.7 W 20 24 11 13 1008.6 - 0.0
28/10:00pm 29.0 31.7 25.0 79 2.8 W 20 24 11 13 1008.5 - 0.0
28/09:30pm 29.0 30.9 25.0 79 2.8 W 24 28 13 15 1008.0 - 0.0
28/09:00pm 28.9 30.7 24.9 79 2.8 W 24 28 13 15 1007.7 1007.7 0.0
28/08:30pm 28.9 30.7 24.9 79 2.8 W 24 28 13 15 1007.5 - 0.0
28/08:00pm 28.9 30.9 25.1 80 2.7 W 24 28 13 15 1007.2 - 0.0
28/07:30pm 29.0 30.6 25.2 80 2.7 W 26 30 14 16 1006.8 - 0.0
28/07:00pm 28.9 29.9 24.7 78 2.9 W 28 32 15 17 1006.5 - 0.0
28/06:30pm 29.2 30.5 25.2 79 2.8 WNW 28 32 15 17 1006.0 - 0.0
28/06:00pm 29.5 30.9 24.8 76 3.3 WNW 26 30 14 16 1005.9 1005.9 0.0
28/05:30pm 29.5 31.5 24.6 75 3.4 WNW 22 26 12 14 1005.6 - 0.0
28/05:00pm 29.9 32.4 24.8 74 3.6 WNW 20 22 11 12 1005.2 - 0.0
28/04:30pm 29.9 32.4 24.8 74 3.6 WNW 20 24 11 13 1005.2 - 0.0
28/04:00pm 30.0 32.5 25.3 76 3.3 WNW 22 26 12 14 1005.6 - 0.0
28/03:30pm 30.4 32.9 24.8 72 3.9 WNW 20 24 11 13 1005.9 - 0.0
28/03:00pm 30.6 33.4 25.0 72 3.9 WNW 19 22 10 12 1006.3 1006.3 0.0
28/02:30pm 30.0 32.6 24.6 73 3.8 WNW 19 20 10 11 1006.4 - 0.0
28/02:00pm 30.2 32.7 24.8 73 3.8 WNW 20 22 11 12 1007.0 - 0.0
28/01:30pm 30.2 32.8 24.6 72 3.9 NW 19 20 10 11 1007.2 - 0.0
28/01:00pm 30.1 33.1 24.7 73 3.8 NW 17 20 9 11 1007.5 - 0.0
28/12:30pm 29.9 33.6 25.2 76 3.3 WNW 15 19 8 10 1007.9 - 0.0
28/12:00pm 30.4 34.7 25.5 75 3.5 WNW 13 19 7 10 1008.4 1008.4 0.0
28/11:30am 30.3 33.8 24.9 73 3.8 WNW 15 20 8 11 1008.6 - 0.0
28/11:00am 30.1 33.6 24.9 73 3.6 WNW 15 17 8 9 1008.8 - 0.0
28/10:30am 29.9 32.8 24.5 73 3.8 NW 17 19 9 10 1009.1 - 0.0
28/10:00am 30.1 33.6 24.9 73 3.6 NW 15 20 8 11 1009.1 - 0.0
28/09:30am 29.6 32.1 24.5 74 3.6 NW 19 22 10 12 1009.2 - 0.0
28/09:00am 29.4 31.9 24.5 75 3.4 NW 19 22 10 12 1009.1 1009.1 0.0
28/08:30am 29.0 31.7 24.8 78 2.9 WNW 19 20 10 11 1008.8 - 0.0
28/08:00am 28.8 31.5 24.8 79 2.8 NW 19 20 10 11 1008.2 - 0.0
28/07:30am 28.6 32.3 25.2 82 2.4 WNW 15 17 8 9 1007.7 - 0.0
28/07:00am 28.2 32.1 24.8 82 2.4 WNW 13 15 7 8 1007.3 - 0.0
28/06:30am 28.2 31.4 25.0 83 2.2 WNW 17 19 9 10 1007.0 - 0.0
28/06:00am 28.2 31.3 24.8 82 2.4 W 17 19 9 10 1006.7 1006.7 0.0
28/05:30am 28.2 32.1 24.8 82 2.4 W 13 17 7 9 1006.4 - 0.0
28/05:00am 28.1 32.2 24.5 81 2.5 W 11 13 6 7 1006.0 - 0.0
28/04:30am 28.2 31.9 24.6 81 2.5 WNW 13 15 7 8 1005.9 - 0.0
28/04:00am 28.1 31.7 24.3 80 2.6 NW 13 15 7 8 1006.0 - 0.0
28/03:30am 28.2 31.6 24.6 81 2.5 NW 15 17 8 9 1006.3 - 0.0
28/03:00am 28.3 32.1 24.7 81 2.5 NW 13 15 7 8 1006.6 1006.6 0.0
28/02:30am 28.3 32.1 24.7 81 2.5 NW 13 15 7 8 1006.6 - 0.0
28/02:00am 28.4 32.3 24.8 81 2.5 NW 13 15 7 8 1006.9 - 0.0
28/01:30am 28.4 32.1 24.6 80 2.6 NW 13 17 7 9 1007.1 - 0.0
28/01:00am 28.3 32.6 24.9 82 2.4 NW 11 13 6 7 1007.1 - 0.0
28/12:30am 28.2 32.2 24.4 80 2.6 NW 11 15 6 8 1007.4 - 0.0
28/12:00am 28.4 32.4 24.4 79 2.8 WNW 11 13 6 7 1007.4 1007.4 0.0
 
Date/Time
CST
Temp
°C
App
Temp
°C
Dew
Point
°C
Rel
Hum
%
Delta-T
°C
Wind Press
QNH
hPa
Press
MSL
hPa
Rain since
9am
mm
Dir  Spd
km/h
Gust
km/h
Spd
kts
Gust
kts
27/11:30pm 28.5 31.9 24.7 80 2.7 WNW 15 17 8 9 1007.3 - 0.0
27/11:00pm 28.4 31.8 24.6 80 2.6 NW 15 19 8 10 1007.2 - 0.0
27/10:30pm 28.5 31.0 24.5 79 2.8 NW 19 22 10 12 1007.2 - 0.0
27/10:00pm 28.5 30.7 24.3 78 2.9 WNW 20 24 11 13 1007.1 - 0.0
27/09:30pm 28.4 30.7 24.4 79 2.8 NW 20 24 11 13 1006.6 - 0.0
27/09:00pm 28.6 31.3 24.8 80 2.7 NW 19 22 10 12 1006.3 1006.3 0.0
27/08:30pm 28.5 31.2 24.7 80 2.7 NW 19 22 10 12 1005.9 - 0.0
27/08:00pm 28.5 31.4 24.5 79 2.8 WNW 17 19 9 10 1005.4 - 0.0
27/07:30pm 28.5 32.1 24.3 78 2.9 WNW 13 15 7 8 1005.1 - 0.0
27/07:00pm 28.5 32.1 24.3 78 2.9 WNW 13 15 7 8 1004.7 - 0.0
27/06:30pm 28.8 32.6 24.1 76 3.3 W 11 13 6 7 1004.4 - 0.0
27/06:00pm 29.5 32.9 24.1 72 3.8 WNW 13 15 7 8 1004.2 1004.2 0.0
27/05:30pm 29.5 33.2 23.9 72 3.9 NW 11 13 6 7 1003.9 - 0.0
27/05:00pm 29.8 33.4 23.7 70 4.2 NW 11 13 6 7 1003.8 - 0.0
27/04:30pm 29.8 33.6 24.0 71 4.0 WNW 11 15 6 8 1003.8 - 0.0
27/04:00pm 30.0 32.8 23.7 69 4.4 WNW 15 17 8 9 1004.2 - 0.0
27/03:30pm 30.3 33.7 24.0 69 4.4 WNW 13 15 7 8 1004.4 - 0.0
27/03:00pm 30.2 34.2 24.4 71 4.1 NW 11 15 6 8 1004.5 1004.5 0.0
27/02:30pm 30.1 34.7 24.7 73 3.8 NW 9 13 5 7 1004.6 - 0.0
27/02:00pm 30.3 34.9 24.7 72 3.9 NW 9 13 5 7 1005.1 - 0.0
27/01:30pm 30.1 34.6 24.0 70 4.2 NW 7 11 4 6 1005.3 - 0.0
27/01:00pm 29.8 34.3 24.0 71 4.0 N 7 9 4 5 1005.9 - 0.0
27/12:30pm 29.3 33.6 24.2 74 3.5 N 9 11 5 6 1006.2 - 0.0
27/12:00pm 29.3 33.9 24.2 74 3.5 N 7 9 4 5 1006.2 1006.2 0.0
27/11:30am 29.7 34.6 24.3 73 3.8 W 6 7 3 4 1006.3 - 0.0
27/11:00am 29.1 33.5 23.8 73 3.7 W 7 9 4 5 1006.5 - 0.0

Other formats

Comma delimited format used in spreadsheet applications
http://www.bom.gov.au/fwo/IDD60801/IDD60801.94135.axf

JavaScript Object Notation format (JSON) in row-major order
http://www.bom.gov.au/fwo/IDD60801/IDD60801.94135.json

Data quality

Most of these data are generated automatically and are frequently updated. Quality checks on data are not normally performed. It is possible for incorrect values to appear. Refer to information at About Latest Weather Observations and please check the disclaimer before using these data.